AFR6199 LFPO-LFKB
Flight info
| Callsign | AFR6199 |
|---|---|
| Flight time | 1h 18m |
| Altitude | 37000 |
| Route | LATRA DCT LAMUT DCT UTUVA DCT TITVA DCT NOQAS DCT OTROT DCT RETNO DCT KOLON DCT NARTI UP991 NIRDO |
| Aircraft | A320/M-SDE3FGHIRWY/LB1 |
Departure
| Time | 2026-04-26 15:38 |
|---|---|
| Airport | Paris-Orly Airport (LFPO) |
Arrival
| Time | 2026-04-26 16:57 |
|---|---|
| Airport | Bastia-Poretta International airport (LFKB) |
| Time | Latitude | Longitude | Altitude | Speed | Heading |
|---|---|---|---|---|---|
| 2026-04-26 15:23 | 48.72594 | 2.36148 | 298 ft | 0 kts | 334° |
| 2026-04-26 15:32 | 48.72583 | 2.36157 | 298 ft | 2 kts | 328° |
| 2026-04-26 15:32 | 48.72569 | 2.36170 | 299 ft | 2 kts | 324° |
| 2026-04-26 15:33 | 48.72556 | 2.36185 | 298 ft | 2 kts | 314° |
| 2026-04-26 15:33 | 48.72545 | 2.36203 | 296 ft | 2 kts | 307° |
| 2026-04-26 15:33 | 48.72533 | 2.36220 | 296 ft | 2 kts | 341° |
| 2026-04-26 15:33 | 48.72518 | 2.36229 | 297 ft | 2 kts | 307° |
| 2026-04-26 15:34 | 48.72514 | 2.36246 | 296 ft | 1 kts | 255° |
| 2026-04-26 15:34 | 48.72514 | 2.36247 | 296 ft | 0 kts | 255° |
| 2026-04-26 15:35 | 48.72500 | 2.36228 | 297 ft | 7 kts | 198° |
| 2026-04-26 15:36 | 48.72425 | 2.36250 | 295 ft | 12 kts | 165° |
| 2026-04-26 15:36 | 48.72346 | 2.36282 | 295 ft | 13 kts | 163° |
| 2026-04-26 15:36 | 48.72258 | 2.36376 | 298 ft | 17 kts | 123° |
| 2026-04-26 15:36 | 48.72184 | 2.36525 | 297 ft | 18 kts | 148° |
| 2026-04-26 15:37 | 48.72090 | 2.36583 | 298 ft | 9 kts | 148° |
| 2026-04-26 15:37 | 48.72083 | 2.36640 | 296 ft | 5 kts | 80° |
| 2026-04-26 15:37 | 48.72093 | 2.36684 | 298 ft | 5 kts | 71° |
| 2026-04-26 15:37 | 48.72103 | 2.36736 | 297 ft | 9 kts | 73° |
| 2026-04-26 15:38 | 48.72184 | 2.37166 | 293 ft | 79 kts | 74° |
| 2026-04-26 15:38 | 48.72389 | 2.38278 | 301 ft | 137 kts | 74° |
| 2026-04-26 15:38 | 48.72672 | 2.39879 | 536 ft | 165 kts | 75° |
| 2026-04-26 15:38 | 48.72972 | 2.41543 | 1280 ft | 164 kts | 72° |
| 2026-04-26 15:39 | 48.73285 | 2.43229 | 2124 ft | 165 kts | 73° |
| 2026-04-26 15:39 | 48.73610 | 2.44967 | 2530 ft | 182 kts | 73° |
| 2026-04-26 15:39 | 48.73973 | 2.46935 | 2846 ft | 207 kts | 76° |
| 2026-04-26 15:39 | 48.74111 | 2.48432 | 3130 ft | 224 kts | 82° |
| 2026-04-26 15:40 | 48.74259 | 2.51809 | 3763 ft | 252 kts | 86° |
| 2026-04-26 15:40 | 48.74336 | 2.54507 | 4498 ft | 260 kts | 87° |
| 2026-04-26 15:40 | 48.74111 | 2.57236 | 5274 ft | 267 kts | 114° |
| 2026-04-26 15:40 | 48.72928 | 2.59391 | 6055 ft | 273 kts | 147° |
| 2026-04-26 15:41 | 48.71190 | 2.60573 | 6886 ft | 277 kts | 163° |
| 2026-04-26 15:41 | 48.69312 | 2.61276 | 7686 ft | 280 kts | 168° |
| 2026-04-26 15:41 | 48.67386 | 2.61856 | 8472 ft | 284 kts | 169° |
| 2026-04-26 15:41 | 48.65382 | 2.62189 | 9275 ft | 288 kts | 182° |
| 2026-04-26 15:42 | 48.63387 | 2.61766 | 10075 ft | 292 kts | 195° |
| 2026-04-26 15:42 | 48.61478 | 2.60670 | 10796 ft | 296 kts | 207° |
| 2026-04-26 15:42 | 48.59581 | 2.59201 | 11075 ft | 318 kts | 207° |
| 2026-04-26 15:42 | 48.57536 | 2.57627 | 11317 ft | 339 kts | 207° |
| 2026-04-26 15:43 | 48.55406 | 2.55992 | 11909 ft | 346 kts | 207° |
| 2026-04-26 15:43 | 48.53248 | 2.54340 | 12599 ft | 350 kts | 207° |
| 2026-04-26 15:43 | 48.48869 | 2.50983 | 14009 ft | 356 kts | 207° |
| 2026-04-26 15:44 | 48.46647 | 2.49291 | 14629 ft | 359 kts | 206° |
| 2026-04-26 15:44 | 48.41854 | 2.46886 | 15836 ft | 367 kts | 198° |
| 2026-04-26 15:44 | 48.39392 | 2.45770 | 16434 ft | 370 kts | 198° |
| 2026-04-26 15:45 | 48.34416 | 2.43514 | 17624 ft | 377 kts | 198° |
| 2026-04-26 15:45 | 48.31885 | 2.42426 | 18207 ft | 381 kts | 194° |
| 2026-04-26 15:46 | 48.26527 | 2.42286 | 19221 ft | 393 kts | 171° |
| 2026-04-26 15:46 | 48.23898 | 2.43416 | 19712 ft | 397 kts | 162° |
| 2026-04-26 15:46 | 48.21278 | 2.44818 | 20220 ft | 400 kts | 162° |
| 2026-04-26 15:46 | 48.19507 | 2.45761 | 20549 ft | 401 kts | 162° |
| 2026-04-26 15:47 | 48.16004 | 2.47613 | 21181 ft | 405 kts | 162° |
| 2026-04-26 15:47 | 48.10618 | 2.50445 | 22137 ft | 410 kts | 162° |
| 2026-04-26 15:47 | 48.07920 | 2.51870 | 22599 ft | 413 kts | 162° |
| 2026-04-26 15:48 | 48.05198 | 2.53273 | 23044 ft | 415 kts | 163° |
| 2026-04-26 15:48 | 48.02445 | 2.54639 | 23498 ft | 418 kts | 163° |
| 2026-04-26 15:48 | 47.99666 | 2.55989 | 23886 ft | 421 kts | 163° |
| 2026-04-26 15:48 | 47.96869 | 2.57339 | 24225 ft | 425 kts | 163° |
| 2026-04-26 15:49 | 47.94050 | 2.58704 | 24561 ft | 428 kts | 163° |
| 2026-04-26 15:49 | 47.91209 | 2.60090 | 24901 ft | 431 kts | 163° |
| 2026-04-26 15:49 | 47.88354 | 2.61490 | 25232 ft | 434 kts | 163° |
| 2026-04-26 15:49 | 47.85480 | 2.62901 | 25560 ft | 437 kts | 163° |
| 2026-04-26 15:50 | 47.83564 | 2.63840 | 25786 ft | 439 kts | 163° |
| 2026-04-26 15:50 | 47.79672 | 2.65750 | 26209 ft | 442 kts | 163° |
| 2026-04-26 15:50 | 47.76744 | 2.67185 | 26525 ft | 445 kts | 162° |
| 2026-04-26 15:50 | 47.73792 | 2.68624 | 26844 ft | 448 kts | 163° |
| 2026-04-26 15:51 | 47.70822 | 2.70070 | 27161 ft | 450 kts | 163° |
| 2026-04-26 15:51 | 47.67831 | 2.71526 | 27474 ft | 453 kts | 163° |
| 2026-04-26 15:51 | 47.64828 | 2.72989 | 27781 ft | 456 kts | 162° |
| 2026-04-26 15:51 | 47.61807 | 2.74460 | 28087 ft | 459 kts | 163° |
| 2026-04-26 15:52 | 47.58766 | 2.75935 | 28388 ft | 461 kts | 163° |
| 2026-04-26 15:52 | 47.55709 | 2.77414 | 28683 ft | 464 kts | 162° |
| 2026-04-26 15:52 | 47.52628 | 2.78900 | 28978 ft | 466 kts | 162° |
| 2026-04-26 15:52 | 47.50539 | 2.79906 | 29171 ft | 468 kts | 162° |
| 2026-04-26 15:53 | 47.46426 | 2.81887 | 29537 ft | 471 kts | 162° |
| 2026-04-26 15:53 | 47.43302 | 2.83395 | 29800 ft | 474 kts | 162° |
| 2026-04-26 15:53 | 47.40159 | 2.84915 | 30060 ft | 476 kts | 162° |
| 2026-04-26 15:53 | 47.37004 | 2.86437 | 30316 ft | 478 kts | 162° |
| 2026-04-26 15:54 | 47.33831 | 2.87963 | 30524 ft | 480 kts | 162° |
| 2026-04-26 15:54 | 47.30652 | 2.89487 | 30762 ft | 482 kts | 162° |
| 2026-04-26 15:54 | 47.27454 | 2.91017 | 30986 ft | 484 kts | 162° |
| 2026-04-26 15:54 | 47.24211 | 2.92568 | 31268 ft | 484 kts | 162° |
| 2026-04-26 15:55 | 47.21006 | 2.94097 | 31587 ft | 483 kts | 162° |
| 2026-04-26 15:55 | 47.17808 | 2.95623 | 31895 ft | 483 kts | 162° |
| 2026-04-26 15:55 | 47.14616 | 2.97144 | 32205 ft | 483 kts | 162° |
| 2026-04-26 15:55 | 47.11422 | 2.98660 | 32512 ft | 482 kts | 163° |
| 2026-04-26 15:56 | 47.08216 | 3.00102 | 32823 ft | 481 kts | 164° |
| 2026-04-26 15:56 | 47.04998 | 3.01452 | 33132 ft | 481 kts | 165° |
| 2026-04-26 15:56 | 47.01774 | 3.02741 | 33436 ft | 480 kts | 166° |
| 2026-04-26 15:56 | 46.98547 | 3.04010 | 33739 ft | 480 kts | 166° |
| 2026-04-26 15:57 | 46.95322 | 3.05282 | 34036 ft | 480 kts | 165° |
| 2026-04-26 15:57 | 46.92101 | 3.06570 | 34305 ft | 480 kts | 165° |
| 2026-04-26 15:57 | 46.88887 | 3.07870 | 34589 ft | 479 kts | 165° |
| 2026-04-26 15:57 | 46.86766 | 3.08737 | 34779 ft | 478 kts | 165° |
| 2026-04-26 15:58 | 46.83563 | 3.10055 | 35052 ft | 477 kts | 165° |
| 2026-04-26 15:58 | 46.80368 | 3.11373 | 35327 ft | 476 kts | 165° |
| 2026-04-26 15:58 | 46.77185 | 3.12683 | 35601 ft | 475 kts | 165° |
| 2026-04-26 15:58 | 46.74000 | 3.13989 | 35859 ft | 474 kts | 165° |
| 2026-04-26 15:59 | 46.70828 | 3.15285 | 36104 ft | 473 kts | 165° |
| 2026-04-26 15:59 | 46.67618 | 3.16593 | 36356 ft | 472 kts | 165° |
| 2026-04-26 15:59 | 46.64453 | 3.17876 | 36605 ft | 471 kts | 165° |
| 2026-04-26 15:59 | 46.61301 | 3.19150 | 36823 ft | 471 kts | 165° |
| 2026-04-26 16:00 | 46.58145 | 3.20425 | 37047 ft | 470 kts | 165° |
| 2026-04-26 16:00 | 46.54998 | 3.21700 | 37162 ft | 469 kts | 165° |
| 2026-04-26 16:00 | 46.51857 | 3.22974 | 37173 ft | 469 kts | 165° |
| 2026-04-26 16:01 | 46.45576 | 3.25515 | 37169 ft | 468 kts | 165° |
| 2026-04-26 16:01 | 46.39307 | 3.28030 | 37166 ft | 468 kts | 165° |
| 2026-04-26 16:02 | 46.33025 | 3.30551 | 37166 ft | 468 kts | 165° |
| 2026-04-26 16:02 | 46.26755 | 3.33060 | 37164 ft | 467 kts | 165° |
| 2026-04-26 16:03 | 46.20487 | 3.35567 | 37167 ft | 468 kts | 165° |
| 2026-04-26 16:03 | 46.14218 | 3.38071 | 37170 ft | 468 kts | 165° |
| 2026-04-26 16:04 | 46.07940 | 3.40564 | 37167 ft | 467 kts | 165° |
| 2026-04-26 16:04 | 46.01671 | 3.43038 | 37169 ft | 467 kts | 165° |
| 2026-04-26 16:05 | 45.95402 | 3.45515 | 37170 ft | 467 kts | 165° |
| 2026-04-26 16:05 | 45.89139 | 3.47998 | 37164 ft | 467 kts | 162° |
| 2026-04-26 16:06 | 45.83296 | 3.51947 | 37165 ft | 465 kts | 145° |
| 2026-04-26 16:06 | 45.77904 | 3.57066 | 37160 ft | 465 kts | 146° |
| 2026-04-26 16:07 | 45.72493 | 3.62151 | 37162 ft | 465 kts | 146° |
| 2026-04-26 16:07 | 45.67042 | 3.67261 | 37159 ft | 465 kts | 146° |
| 2026-04-26 16:08 | 45.61624 | 3.72331 | 37162 ft | 465 kts | 146° |
| 2026-04-26 16:08 | 45.56210 | 3.77403 | 37166 ft | 465 kts | 146° |
| 2026-04-26 16:09 | 45.50789 | 3.82452 | 37157 ft | 465 kts | 146° |
| 2026-04-26 16:09 | 45.45368 | 3.87475 | 37174 ft | 465 kts | 146° |
| 2026-04-26 16:10 | 45.39952 | 3.92502 | 37177 ft | 464 kts | 146° |
| 2026-04-26 16:10 | 45.35107 | 3.98447 | 37171 ft | 460 kts | 128° |
| 2026-04-26 16:11 | 45.31290 | 4.05801 | 37167 ft | 459 kts | 124° |
| 2026-04-26 16:11 | 45.27542 | 4.13126 | 37163 ft | 459 kts | 124° |
| 2026-04-26 16:12 | 45.23787 | 4.20433 | 37156 ft | 459 kts | 124° |
| 2026-04-26 16:12 | 45.18145 | 4.31392 | 37154 ft | 459 kts | 125° |
| 2026-04-26 16:13 | 45.14386 | 4.38699 | 37150 ft | 459 kts | 125° |
| 2026-04-26 16:13 | 45.10588 | 4.45969 | 37140 ft | 459 kts | 127° |
| 2026-04-26 16:14 | 45.06489 | 4.52897 | 37139 ft | 459 kts | 131° |
| 2026-04-26 16:15 | 45.00069 | 4.63031 | 37129 ft | 459 kts | 131° |
| 2026-04-26 16:15 | 44.95855 | 4.69811 | 37116 ft | 460 kts | 131° |
| 2026-04-26 16:16 | 44.89568 | 4.80057 | 37104 ft | 461 kts | 131° |
| 2026-04-26 16:16 | 44.85366 | 4.86872 | 37103 ft | 461 kts | 131° |
| 2026-04-26 16:17 | 44.81156 | 4.93670 | 37112 ft | 460 kts | 131° |
| 2026-04-26 16:17 | 44.76947 | 5.00454 | 37114 ft | 460 kts | 132° |
| 2026-04-26 16:18 | 44.70613 | 5.10593 | 37115 ft | 459 kts | 132° |
| 2026-04-26 16:19 | 44.64288 | 5.20696 | 37113 ft | 459 kts | 132° |
| 2026-04-26 16:20 | 44.57968 | 5.30772 | 37107 ft | 459 kts | 132° |
| 2026-04-26 16:20 | 44.51637 | 5.40827 | 37117 ft | 458 kts | 133° |
| 2026-04-26 16:21 | 44.47418 | 5.47499 | 37108 ft | 457 kts | 133° |
| 2026-04-26 16:21 | 44.43198 | 5.54164 | 37114 ft | 457 kts | 133° |
| 2026-04-26 16:22 | 44.38950 | 5.60854 | 37114 ft | 457 kts | 132° |
| 2026-04-26 16:22 | 44.35239 | 5.68061 | 37112 ft | 457 kts | 125° |
| 2026-04-26 16:23 | 44.31676 | 5.75425 | 37108 ft | 458 kts | 125° |
| 2026-04-26 16:23 | 44.28100 | 5.82770 | 37107 ft | 458 kts | 125° |
| 2026-04-26 16:24 | 44.24503 | 5.90118 | 37101 ft | 458 kts | 126° |
| 2026-04-26 16:24 | 44.20909 | 5.97462 | 37114 ft | 459 kts | 126° |
| 2026-04-26 16:25 | 44.17313 | 6.04816 | 37113 ft | 459 kts | 126° |
| 2026-04-26 16:25 | 44.13712 | 6.12162 | 37131 ft | 459 kts | 126° |
| 2026-04-26 16:26 | 44.10689 | 6.18301 | 37137 ft | 459 kts | 126° |
| 2026-04-26 16:26 | 44.06481 | 6.26813 | 37154 ft | 459 kts | 126° |
| 2026-04-26 16:27 | 44.02862 | 6.34117 | 37147 ft | 459 kts | 126° |
| 2026-04-26 16:27 | 43.99235 | 6.41421 | 37156 ft | 459 kts | 126° |
| 2026-04-26 16:28 | 43.95607 | 6.48709 | 37156 ft | 459 kts | 126° |
| 2026-04-26 16:28 | 43.91979 | 6.55991 | 37151 ft | 459 kts | 126° |
| 2026-04-26 16:29 | 43.88929 | 6.62098 | 37152 ft | 460 kts | 126° |
| 2026-04-26 16:29 | 43.85284 | 6.69380 | 37152 ft | 460 kts | 126° |
| 2026-04-26 16:30 | 43.81622 | 6.76659 | 37141 ft | 460 kts | 126° |
| 2026-04-26 16:30 | 43.77961 | 6.83919 | 37146 ft | 460 kts | 126° |
| 2026-04-26 16:31 | 43.74293 | 6.91175 | 37163 ft | 460 kts | 126° |
| 2026-04-26 16:31 | 43.70415 | 6.98197 | 37165 ft | 459 kts | 132° |
| 2026-04-26 16:32 | 43.66255 | 7.04869 | 37164 ft | 458 kts | 132° |
| 2026-04-26 16:32 | 43.62087 | 7.11542 | 37164 ft | 459 kts | 132° |
| 2026-04-26 16:33 | 43.57919 | 7.18201 | 37153 ft | 459 kts | 132° |
| 2026-04-26 16:33 | 43.54184 | 7.25329 | 37152 ft | 461 kts | 118° |
| 2026-04-26 16:34 | 43.51509 | 7.33428 | 37150 ft | 462 kts | 115° |
| 2026-04-26 16:34 | 43.48861 | 7.41485 | 37148 ft | 462 kts | 115° |
| 2026-04-26 16:35 | 43.46191 | 7.49535 | 37153 ft | 462 kts | 115° |
| 2026-04-26 16:35 | 43.43516 | 7.57581 | 37151 ft | 462 kts | 115° |
| 2026-04-26 16:36 | 43.40847 | 7.65602 | 37127 ft | 461 kts | 115° |
| 2026-04-26 16:36 | 43.39507 | 7.69621 | 36310 ft | 465 kts | 115° |
| 2026-04-26 16:36 | 43.38147 | 7.73686 | 35414 ft | 470 kts | 115° |
| 2026-04-26 16:37 | 43.36776 | 7.77782 | 34578 ft | 472 kts | 115° |
| 2026-04-26 16:37 | 43.35406 | 7.81891 | 33720 ft | 474 kts | 115° |
| 2026-04-26 16:37 | 43.34033 | 7.86007 | 32977 ft | 472 kts | 115° |
| 2026-04-26 16:37 | 43.32666 | 7.90097 | 32193 ft | 471 kts | 115° |
| 2026-04-26 16:38 | 43.31297 | 7.94184 | 31494 ft | 469 kts | 115° |
| 2026-04-26 16:38 | 43.29934 | 7.98227 | 30864 ft | 465 kts | 115° |
| 2026-04-26 16:38 | 43.28577 | 8.02246 | 30191 ft | 463 kts | 115° |
| 2026-04-26 16:38 | 43.27220 | 8.06255 | 29500 ft | 459 kts | 115° |
| 2026-04-26 16:39 | 43.25886 | 8.10197 | 28898 ft | 453 kts | 115° |
| 2026-04-26 16:39 | 43.24566 | 8.14099 | 28277 ft | 449 kts | 115° |
| 2026-04-26 16:39 | 43.23240 | 8.18011 | 27709 ft | 443 kts | 115° |
| 2026-04-26 16:39 | 43.21948 | 8.21818 | 27159 ft | 438 kts | 115° |
| 2026-04-26 16:40 | 43.20668 | 8.25586 | 26621 ft | 433 kts | 115° |
| 2026-04-26 16:40 | 43.19399 | 8.29306 | 26091 ft | 429 kts | 115° |
| 2026-04-26 16:40 | 43.18141 | 8.32987 | 25587 ft | 424 kts | 116° |
| 2026-04-26 16:40 | 43.16900 | 8.36619 | 25091 ft | 419 kts | 116° |
| 2026-04-26 16:41 | 43.15668 | 8.40223 | 24606 ft | 414 kts | 116° |
| 2026-04-26 16:41 | 43.14597 | 8.43867 | 24121 ft | 411 kts | 108° |
| 2026-04-26 16:41 | 43.13971 | 8.47663 | 23528 ft | 410 kts | 101° |
| 2026-04-26 16:41 | 43.13448 | 8.51492 | 22942 ft | 407 kts | 101° |
| 2026-04-26 16:42 | 43.12928 | 8.55284 | 22384 ft | 404 kts | 101° |
| 2026-04-26 16:42 | 43.12405 | 8.59048 | 21843 ft | 401 kts | 102° |
| 2026-04-26 16:42 | 43.11879 | 8.62788 | 21294 ft | 399 kts | 101° |
| 2026-04-26 16:42 | 43.11356 | 8.66496 | 20758 ft | 396 kts | 101° |
| 2026-04-26 16:43 | 43.10836 | 8.70192 | 20215 ft | 395 kts | 102° |
| 2026-04-26 16:43 | 43.10311 | 8.73920 | 19673 ft | 393 kts | 103° |
| 2026-04-26 16:43 | 43.09801 | 8.77535 | 19149 ft | 392 kts | 102° |
| 2026-04-26 16:43 | 43.09277 | 8.81234 | 18648 ft | 389 kts | 102° |
| 2026-04-26 16:44 | 43.08762 | 8.84863 | 18088 ft | 388 kts | 102° |
| 2026-04-26 16:44 | 43.08249 | 8.88448 | 17720 ft | 381 kts | 102° |
| 2026-04-26 16:44 | 43.07744 | 8.91964 | 17091 ft | 375 kts | 103° |
| 2026-04-26 16:44 | 43.07245 | 8.95449 | 16478 ft | 368 kts | 102° |
| 2026-04-26 16:45 | 43.06761 | 8.98840 | 15989 ft | 359 kts | 102° |
| 2026-04-26 16:45 | 43.06288 | 9.02142 | 15508 ft | 350 kts | 102° |
| 2026-04-26 16:45 | 43.05820 | 9.05381 | 15034 ft | 344 kts | 102° |
| 2026-04-26 16:45 | 43.05325 | 9.08573 | 14570 ft | 341 kts | 106° |
| 2026-04-26 16:46 | 43.04601 | 9.11645 | 14098 ft | 340 kts | 108° |
| 2026-04-26 16:46 | 43.03858 | 9.14718 | 13596 ft | 341 kts | 109° |
| 2026-04-26 16:46 | 43.03116 | 9.17793 | 13113 ft | 340 kts | 109° |
| 2026-04-26 16:46 | 43.02378 | 9.20858 | 12636 ft | 339 kts | 108° |
| 2026-04-26 16:47 | 43.01640 | 9.23924 | 12175 ft | 338 kts | 108° |
| 2026-04-26 16:47 | 43.00908 | 9.26973 | 11705 ft | 337 kts | 109° |
| 2026-04-26 16:47 | 43.00177 | 9.30013 | 11235 ft | 337 kts | 109° |
| 2026-04-26 16:47 | 42.99435 | 9.33085 | 10772 ft | 336 kts | 109° |
| 2026-04-26 16:48 | 42.98700 | 9.36111 | 10387 ft | 333 kts | 109° |
| 2026-04-26 16:48 | 42.97987 | 9.39051 | 10261 ft | 321 kts | 109° |
| 2026-04-26 16:48 | 42.97297 | 9.41900 | 10140 ft | 310 kts | 109° |
| 2026-04-26 16:48 | 42.96630 | 9.44645 | 9940 ft | 302 kts | 109° |
| 2026-04-26 16:49 | 42.95968 | 9.47359 | 9581 ft | 300 kts | 109° |
| 2026-04-26 16:49 | 42.95309 | 9.50046 | 9222 ft | 297 kts | 109° |
| 2026-04-26 16:49 | 42.94657 | 9.52706 | 8850 ft | 295 kts | 109° |
| 2026-04-26 16:49 | 42.94017 | 9.55322 | 8717 ft | 284 kts | 109° |
| 2026-04-26 16:50 | 42.93210 | 9.57700 | 8583 ft | 272 kts | 130° |
| 2026-04-26 16:50 | 42.91743 | 9.59171 | 8440 ft | 258 kts | 162° |
| 2026-04-26 16:50 | 42.90006 | 9.59382 | 8151 ft | 250 kts | 193° |
| 2026-04-26 16:50 | 42.88325 | 9.58787 | 7773 ft | 250 kts | 197° |
| 2026-04-26 16:51 | 42.86651 | 9.58165 | 7436 ft | 249 kts | 197° |
| 2026-04-26 16:51 | 42.84984 | 9.57539 | 7107 ft | 247 kts | 200° |
| 2026-04-26 16:51 | 42.83427 | 9.56577 | 6759 ft | 245 kts | 208° |
| 2026-04-26 16:51 | 42.81900 | 9.55542 | 6428 ft | 244 kts | 207° |
| 2026-04-26 16:52 | 42.80363 | 9.54508 | 5856 ft | 252 kts | 207° |
| 2026-04-26 16:52 | 42.79828 | 9.54149 | 5631 ft | 256 kts | 207° |
| 2026-04-26 16:52 | 42.77075 | 9.52306 | 4454 ft | 272 kts | 207° |
| 2026-04-26 16:52 | 42.75399 | 9.51182 | 3927 ft | 263 kts | 207° |
| 2026-04-26 16:53 | 42.73798 | 9.50108 | 3573 ft | 250 kts | 207° |
| 2026-04-26 16:53 | 42.72240 | 9.49063 | 3238 ft | 245 kts | 207° |
| 2026-04-26 16:53 | 42.70715 | 9.48044 | 2922 ft | 242 kts | 206° |
| 2026-04-26 16:53 | 42.69231 | 9.47057 | 2604 ft | 231 kts | 205° |
| 2026-04-26 16:54 | 42.67730 | 9.46572 | 2314 ft | 218 kts | 179° |
| 2026-04-26 16:54 | 42.66247 | 9.46654 | 2013 ft | 208 kts | 177° |
| 2026-04-26 16:54 | 42.64831 | 9.46750 | 1726 ft | 200 kts | 177° |
| 2026-04-26 16:54 | 42.63475 | 9.46848 | 1471 ft | 189 kts | 176° |
| 2026-04-26 16:55 | 42.62208 | 9.46940 | 1205 ft | 177 kts | 176° |
| 2026-04-26 16:55 | 42.61032 | 9.47026 | 980 ft | 160 kts | 176° |
| 2026-04-26 16:55 | 42.59971 | 9.47102 | 742 ft | 147 kts | 176° |
| 2026-04-26 16:55 | 42.58971 | 9.47179 | 536 ft | 143 kts | 174° |
| 2026-04-26 16:56 | 42.57030 | 9.47649 | 199 ft | 143 kts | 162° |
| 2026-04-26 16:56 | 42.56087 | 9.48030 | 36 ft | 134 kts | 161° |
| 2026-04-26 16:56 | 42.55406 | 9.48318 | 38 ft | 61 kts | 164° |
| 2026-04-26 16:57 | 42.55171 | 9.48409 | 38 ft | 29 kts | 164° |
| 2026-04-26 16:57 | 42.55016 | 9.48451 | 40 ft | 17 kts | 202° |
| 2026-04-26 16:57 | 42.54913 | 9.48251 | 39 ft | 10 kts | 175° |
| 2026-04-26 16:58 | 42.54860 | 9.48231 | 37 ft | 7 kts | 234° |
| 2026-04-26 16:58 | 42.54852 | 9.48213 | 38 ft | 6 kts | 244° |
| 2026-04-26 16:58 | 42.54840 | 9.48172 | 39 ft | 0 kts | 248° |